sensor_id;sensor_type;location;lat;lon;timestamp;P1;durP1;ratioP1;P2;durP2;ratioP2
55172;SDS011;41061;52.822;6.860;2023-01-20T00:01:35;14.95;;;7.00;;
55172;SDS011;41061;52.822;6.860;2023-01-20T00:04:02;14.05;;;7.00;;
55172;SDS011;41061;52.822;6.860;2023-01-20T00:06:28;15.90;;;7.78;;
55172;SDS011;41061;52.822;6.860;2023-01-20T00:08:54;15.30;;;6.97;;
55172;SDS011;41061;52.822;6.860;2023-01-20T00:11:22;17.08;;;8.15;;
55172;SDS011;41061;52.822;6.860;2023-01-20T00:13:51;11.80;;;7.32;;
55172;SDS011;41061;52.822;6.860;2023-01-20T00:16:22;15.00;;;7.40;;
55172;SDS011;41061;52.822;6.860;2023-01-20T00:18:48;13.73;;;6.65;;
55172;SDS011;41061;52.822;6.860;2023-01-20T00:21:14;18.10;;;7.97;;
55172;SDS011;41061;52.822;6.860;2023-01-20T00:23:43;17.10;;;8.63;;
55172;SDS011;41061;52.822;6.860;2023-01-20T00:26:11;19.17;;;10.30;;
55172;SDS011;41061;52.822;6.860;2023-01-20T00:28:38;20.25;;;9.55;;
55172;SDS011;41061;52.822;6.860;2023-01-20T00:31:20;22.73;;;10.45;;
55172;SDS011;41061;52.822;6.860;2023-01-20T00:33:49;13.82;;;8.70;;
55172;SDS011;41061;52.822;6.860;2023-01-20T00:36:16;20.33;;;10.30;;
55172;SDS011;41061;52.822;6.860;2023-01-20T00:38:43;13.40;;;7.68;;
55172;SDS011;41061;52.822;6.860;2023-01-20T00:41:09;13.10;;;7.82;;
55172;SDS011;41061;52.822;6.860;2023-01-20T00:43:35;15.18;;;7.90;;
55172;SDS011;41061;52.822;6.860;2023-01-20T00:46:01;13.23;;;7.90;;
55172;SDS011;41061;52.822;6.860;2023-01-20T00:48:27;14.93;;;8.15;;
55172;SDS011;41061;52.822;6.860;2023-01-20T00:50:53;14.23;;;8.93;;
55172;SDS011;41061;52.822;6.860;2023-01-20T00:53:19;19.80;;;10.18;;
55172;SDS011;41061;52.822;6.860;2023-01-20T00:55:44;26.35;;;12.00;;
55172;SDS011;41061;52.822;6.860;2023-01-20T00:58:10;15.82;;;8.52;;
55172;SDS011;41061;52.822;6.860;2023-01-20T01:00:36;12.23;;;7.53;;
55172;SDS011;41061;52.822;6.860;2023-01-20T01:03:02;12.32;;;7.72;;
55172;SDS011;41061;52.822;6.860;2023-01-20T01:05:29;12.05;;;7.05;;
55172;SDS011;41061;52.822;6.860;2023-01-20T01:07:55;12.38;;;8.25;;
55172;SDS011;41061;52.822;6.860;2023-01-20T01:10:21;12.00;;;7.05;;
55172;SDS011;41061;52.822;6.860;2023-01-20T01:12:47;10.65;;;6.97;;
55172;SDS011;41061;52.822;6.860;2023-01-20T01:15:12;14.90;;;7.47;;
55172;SDS011;41061;52.822;6.860;2023-01-20T01:17:39;12.55;;;7.75;;
55172;SDS011;41061;52.822;6.860;2023-01-20T01:20:08;11.02;;;7.28;;
55172;SDS011;41061;52.822;6.860;2023-01-20T01:22:35;12.38;;;7.22;;
55172;SDS011;41061;52.822;6.860;2023-01-20T01:25:01;11.10;;;7.35;;
55172;SDS011;41061;52.822;6.860;2023-01-20T01:27:27;12.13;;;7.45;;
55172;SDS011;41061;52.822;6.860;2023-01-20T01:29:53;12.48;;;7.55;;
55172;SDS011;41061;52.822;6.860;2023-01-20T01:32:20;11.68;;;6.82;;
55172;SDS011;41061;52.822;6.860;2023-01-20T01:34:49;13.80;;;7.95;;
55172;SDS011;41061;52.822;6.860;2023-01-20T01:37:15;15.93;;;8.07;;
55172;SDS011;41061;52.822;6.860;2023-01-20T01:39:40;12.93;;;8.57;;
55172;SDS011;41061;52.822;6.860;2023-01-20T01:42:13;14.63;;;8.73;;
55172;SDS011;41061;52.822;6.860;2023-01-20T01:47:44;13.93;;;8.95;;
55172;SDS011;41061;52.822;6.860;2023-01-20T01:50:15;13.43;;;8.27;;
55172;SDS011;41061;52.822;6.860;2023-01-20T01:52:45;12.43;;;8.52;;
55172;SDS011;41061;52.822;6.860;2023-01-20T01:55:13;14.55;;;8.77;;
55172;SDS011;41061;52.822;6.860;2023-01-20T01:57:42;16.13;;;8.77;;
55172;SDS011;41061;52.822;6.860;2023-01-20T02:00:08;14.52;;;9.45;;
55172;SDS011;41061;52.822;6.860;2023-01-20T02:02:35;14.88;;;9.07;;
55172;SDS011;41061;52.822;6.860;2023-01-20T02:05:01;13.15;;;8.88;;
55172;SDS011;41061;52.822;6.860;2023-01-20T02:07:27;14.25;;;8.85;;
55172;SDS011;41061;52.822;6.860;2023-01-20T02:09:55;11.10;;;7.13;;
55172;SDS011;41061;52.822;6.860;2023-01-20T02:12:21;12.82;;;8.07;;
55172;SDS011;41061;52.822;6.860;2023-01-20T02:14:51;10.48;;;7.40;;
55172;SDS011;41061;52.822;6.860;2023-01-20T02:17:22;9.93;;;6.53;;
55172;SDS011;41061;52.822;6.860;2023-01-20T02:23:05;11.80;;;7.57;;
55172;SDS011;41061;52.822;6.860;2023-01-20T02:25:52;10.70;;;7.13;;
55172;SDS011;41061;52.822;6.860;2023-01-20T02:36:33;11.45;;;7.00;;
55172;SDS011;41061;52.822;6.860;2023-01-20T02:42:18;11.23;;;7.72;;
55172;SDS011;41061;52.822;6.860;2023-01-20T02:44:52;12.00;;;7.63;;
55172;SDS011;41061;52.822;6.860;2023-01-20T02:47:44;10.93;;;7.72;;
55172;SDS011;41061;52.822;6.860;2023-01-20T02:50:45;11.82;;;7.95;;
55172;SDS011;41061;52.822;6.860;2023-01-20T02:53:19;11.40;;;8.13;;
55172;SDS011;41061;52.822;6.860;2023-01-20T02:55:48;12.63;;;8.18;;
55172;SDS011;41061;52.822;6.860;2023-01-20T02:58:28;11.98;;;8.45;;
55172;SDS011;41061;52.822;6.860;2023-01-20T03:01:10;11.25;;;8.18;;
55172;SDS011;41061;52.822;6.860;2023-01-20T03:03:40;13.85;;;9.18;;
55172;SDS011;41061;52.822;6.860;2023-01-20T03:06:10;12.18;;;8.35;;
55172;SDS011;41061;52.822;6.860;2023-01-20T03:08:41;16.17;;;8.65;;
55172;SDS011;41061;52.822;6.860;2023-01-20T03:11:09;14.80;;;9.15;;
55172;SDS011;41061;52.822;6.860;2023-01-20T03:13:40;13.90;;;9.63;;
55172;SDS011;41061;52.822;6.860;2023-01-20T03:16:22;13.57;;;8.70;;
55172;SDS011;41061;52.822;6.860;2023-01-20T03:18:50;14.32;;;8.73;;
55172;SDS011;41061;52.822;6.860;2023-01-20T03:21:17;14.13;;;9.45;;
55172;SDS011;41061;52.822;6.860;2023-01-20T03:23:43;14.32;;;9.18;;
55172;SDS011;41061;52.822;6.860;2023-01-20T03:26:12;14.82;;;9.65;;
55172;SDS011;41061;52.822;6.860;2023-01-20T03:28:39;14.63;;;9.38;;
55172;SDS011;41061;52.822;6.860;2023-01-20T03:33:52;20.52;;;10.63;;
55172;SDS011;41061;52.822;6.860;2023-01-20T03:36:20;17.40;;;9.88;;
55172;SDS011;41061;52.822;6.860;2023-01-20T03:38:48;14.52;;;10.10;;
55172;SDS011;41061;52.822;6.860;2023-01-20T03:41:16;13.88;;;9.30;;
55172;SDS011;41061;52.822;6.860;2023-01-20T03:46:52;13.30;;;9.23;;
55172;SDS011;41061;52.822;6.860;2023-01-20T03:52:08;14.02;;;9.52;;
55172;SDS011;41061;52.822;6.860;2023-01-20T03:54:53;18.38;;;9.27;;
55172;SDS011;41061;52.822;6.860;2023-01-20T03:57:24;13.95;;;9.07;;
55172;SDS011;41061;52.822;6.860;2023-01-20T03:59:55;14.10;;;9.07;;
55172;SDS011;41061;52.822;6.860;2023-01-20T04:02:22;15.00;;;8.88;;
55172;SDS011;41061;52.822;6.860;2023-01-20T04:04:50;17.67;;;9.30;;
55172;SDS011;41061;52.822;6.860;2023-01-20T04:07:19;14.05;;;8.73;;
55172;SDS011;41061;52.822;6.860;2023-01-20T04:09:48;15.77;;;9.32;;
55172;SDS011;41061;52.822;6.860;2023-01-20T04:12:18;14.00;;;9.70;;
55172;SDS011;41061;52.822;6.860;2023-01-20T04:14:44;13.98;;;8.70;;
55172;SDS011;41061;52.822;6.860;2023-01-20T04:17:09;14.23;;;8.90;;
55172;SDS011;41061;52.822;6.860;2023-01-20T04:19:36;15.45;;;9.45;;
55172;SDS011;41061;52.822;6.860;2023-01-20T04:22:06;15.20;;;9.85;;
55172;SDS011;41061;52.822;6.860;2023-01-20T04:27:07;13.68;;;8.55;;
55172;SDS011;41061;52.822;6.860;2023-01-20T04:29:32;15.73;;;8.90;;
55172;SDS011;41061;52.822;6.860;2023-01-20T04:32:01;15.32;;;9.57;;
55172;SDS011;41061;52.822;6.860;2023-01-20T04:34:28;13.27;;;8.48;;
55172;SDS011;41061;52.822;6.860;2023-01-20T04:36:53;14.73;;;9.63;;
55172;SDS011;41061;52.822;6.860;2023-01-20T04:39:19;12.07;;;8.68;;
55172;SDS011;41061;52.822;6.860;2023-01-20T04:41:45;13.40;;;8.68;;
55172;SDS011;41061;52.822;6.860;2023-01-20T04:44:12;14.27;;;8.30;;
55172;SDS011;41061;52.822;6.860;2023-01-20T04:46:37;12.30;;;8.93;;
55172;SDS011;41061;52.822;6.860;2023-01-20T04:49:03;14.52;;;9.20;;
55172;SDS011;41061;52.822;6.860;2023-01-20T04:51:30;16.50;;;9.50;;
55172;SDS011;41061;52.822;6.860;2023-01-20T04:53:56;17.63;;;9.35;;
55172;SDS011;41061;52.822;6.860;2023-01-20T04:56:22;15.15;;;9.30;;
55172;SDS011;41061;52.822;6.860;2023-01-20T04:58:48;13.15;;;8.43;;
55172;SDS011;41061;52.822;6.860;2023-01-20T05:01:14;14.10;;;9.63;;
55172;SDS011;41061;52.822;6.860;2023-01-20T05:03:40;14.55;;;8.85;;
55172;SDS011;41061;52.822;6.860;2023-01-20T05:06:05;16.63;;;9.13;;
55172;SDS011;41061;52.822;6.860;2023-01-20T05:08:31;13.82;;;8.75;;
55172;SDS011;41061;52.822;6.860;2023-01-20T05:10:57;15.02;;;9.90;;
55172;SDS011;41061;52.822;6.860;2023-01-20T05:13:23;16.33;;;9.90;;
55172;SDS011;41061;52.822;6.860;2023-01-20T05:15:49;18.48;;;10.45;;
55172;SDS011;41061;52.822;6.860;2023-01-20T05:18:15;17.48;;;9.90;;
55172;SDS011;41061;52.822;6.860;2023-01-20T05:20:43;17.15;;;9.98;;
55172;SDS011;41061;52.822;6.860;2023-01-20T05:23:09;15.27;;;10.13;;
55172;SDS011;41061;52.822;6.860;2023-01-20T05:25:35;18.92;;;10.57;;
55172;SDS011;41061;52.822;6.860;2023-01-20T05:28:01;17.58;;;10.70;;
55172;SDS011;41061;52.822;6.860;2023-01-20T05:30:27;14.88;;;9.82;;
55172;SDS011;41061;52.822;6.860;2023-01-20T05:32:52;17.70;;;10.90;;
55172;SDS011;41061;52.822;6.860;2023-01-20T05:35:18;20.10;;;11.57;;
55172;SDS011;41061;52.822;6.860;2023-01-20T05:37:44;18.88;;;11.25;;
55172;SDS011;41061;52.822;6.860;2023-01-20T05:40:10;21.15;;;11.77;;
55172;SDS011;41061;52.822;6.860;2023-01-20T05:42:36;23.42;;;12.38;;
55172;SDS011;41061;52.822;6.860;2023-01-20T05:45:02;21.77;;;12.95;;
55172;SDS011;41061;52.822;6.860;2023-01-20T05:47:28;23.48;;;13.75;;
55172;SDS011;41061;52.822;6.860;2023-01-20T05:49:53;23.08;;;12.73;;
55172;SDS011;41061;52.822;6.860;2023-01-20T05:52:19;24.20;;;13.35;;
55172;SDS011;41061;52.822;6.860;2023-01-20T05:54:45;21.67;;;12.50;;
55172;SDS011;41061;52.822;6.860;2023-01-20T05:57:11;24.65;;;12.40;;
55172;SDS011;41061;52.822;6.860;2023-01-20T05:59:42;21.70;;;12.68;;
55172;SDS011;41061;52.822;6.860;2023-01-20T06:02:09;27.00;;;12.50;;
55172;SDS011;41061;52.822;6.860;2023-01-20T06:04:35;24.25;;;12.80;;
55172;SDS011;41061;52.822;6.860;2023-01-20T06:07:01;24.17;;;12.93;;
55172;SDS011;41061;52.822;6.860;2023-01-20T06:09:26;23.45;;;13.43;;
55172;SDS011;41061;52.822;6.860;2023-01-20T06:11:52;22.15;;;13.63;;
55172;SDS011;41061;52.822;6.860;2023-01-20T06:14:18;24.10;;;13.13;;
55172;SDS011;41061;52.822;6.860;2023-01-20T06:16:43;23.85;;;14.02;;
55172;SDS011;41061;52.822;6.860;2023-01-20T06:19:09;23.95;;;14.05;;
55172;SDS011;41061;52.822;6.860;2023-01-20T06:21:34;23.45;;;13.60;;
55172;SDS011;41061;52.822;6.860;2023-01-20T06:24:00;28.23;;;14.70;;
55172;SDS011;41061;52.822;6.860;2023-01-20T06:26:26;28.92;;;15.73;;
55172;SDS011;41061;52.822;6.860;2023-01-20T06:28:52;27.77;;;15.85;;
55172;SDS011;41061;52.822;6.860;2023-01-20T06:31:22;27.98;;;15.75;;
55172;SDS011;41061;52.822;6.860;2023-01-20T06:33:48;29.75;;;17.30;;
55172;SDS011;41061;52.822;6.860;2023-01-20T06:36:13;29.42;;;16.92;;
55172;SDS011;41061;52.822;6.860;2023-01-20T06:38:41;31.90;;;17.25;;
55172;SDS011;41061;52.822;6.860;2023-01-20T06:41:12;33.83;;;17.73;;
55172;SDS011;41061;52.822;6.860;2023-01-20T06:43:38;32.97;;;17.48;;
55172;SDS011;41061;52.822;6.860;2023-01-20T06:46:07;35.42;;;18.60;;
55172;SDS011;41061;52.822;6.860;2023-01-20T06:48:36;30.23;;;17.13;;
55172;SDS011;41061;52.822;6.860;2023-01-20T06:51:03;35.17;;;18.92;;
55172;SDS011;41061;52.822;6.860;2023-01-20T06:53:30;36.13;;;19.17;;
55172;SDS011;41061;52.822;6.860;2023-01-20T06:55:57;33.25;;;18.60;;
55172;SDS011;41061;52.822;6.860;2023-01-20T06:58:25;34.00;;;18.67;;
55172;SDS011;41061;52.822;6.860;2023-01-20T07:00:53;37.30;;;18.65;;
55172;SDS011;41061;52.822;6.860;2023-01-20T07:03:20;36.97;;;18.80;;
55172;SDS011;41061;52.822;6.860;2023-01-20T07:05:57;36.47;;;20.08;;
55172;SDS011;41061;52.822;6.860;2023-01-20T07:08:27;35.15;;;20.55;;
55172;SDS011;41061;52.822;6.860;2023-01-20T07:10:53;36.97;;;19.00;;
55172;SDS011;41061;52.822;6.860;2023-01-20T07:13:19;38.50;;;20.65;;
55172;SDS011;41061;52.822;6.860;2023-01-20T07:15:45;38.45;;;21.23;;
55172;SDS011;41061;52.822;6.860;2023-01-20T07:18:11;40.17;;;20.10;;
55172;SDS011;41061;52.822;6.860;2023-01-20T07:20:36;39.88;;;20.73;;
55172;SDS011;41061;52.822;6.860;2023-01-20T07:23:07;40.15;;;21.80;;
55172;SDS011;41061;52.822;6.860;2023-01-20T07:25:32;39.22;;;19.23;;
55172;SDS011;41061;52.822;6.860;2023-01-20T07:27:58;38.83;;;21.40;;
55172;SDS011;41061;52.822;6.860;2023-01-20T07:30:24;38.42;;;20.52;;
55172;SDS011;41061;52.822;6.860;2023-01-20T07:32:49;40.17;;;20.33;;
55172;SDS011;41061;52.822;6.860;2023-01-20T07:35:15;37.20;;;19.27;;
55172;SDS011;41061;52.822;6.860;2023-01-20T07:37:41;37.83;;;20.42;;
55172;SDS011;41061;52.822;6.860;2023-01-20T07:40:07;39.25;;;20.75;;
55172;SDS011;41061;52.822;6.860;2023-01-20T07:42:36;36.53;;;19.40;;
55172;SDS011;41061;52.822;6.860;2023-01-20T07:45:02;38.33;;;20.80;;
55172;SDS011;41061;52.822;6.860;2023-01-20T07:47:28;41.78;;;20.75;;
55172;SDS011;41061;52.822;6.860;2023-01-20T07:49:54;40.00;;;20.08;;
55172;SDS011;41061;52.822;6.860;2023-01-20T07:52:20;38.38;;;19.77;;
55172;SDS011;41061;52.822;6.860;2023-01-20T07:54:45;41.65;;;20.20;;
55172;SDS011;41061;52.822;6.860;2023-01-20T07:57:11;44.97;;;20.27;;
55172;SDS011;41061;52.822;6.860;2023-01-20T07:59:37;42.78;;;21.13;;
55172;SDS011;41061;52.822;6.860;2023-01-20T08:02:03;35.83;;;18.27;;
55172;SDS011;41061;52.822;6.860;2023-01-20T08:04:28;36.58;;;19.60;;
55172;SDS011;41061;52.822;6.860;2023-01-20T08:06:54;40.28;;;19.48;;
55172;SDS011;41061;52.822;6.860;2023-01-20T08:09:20;37.90;;;20.52;;
55172;SDS011;41061;52.822;6.860;2023-01-20T08:11:45;40.05;;;19.45;;
55172;SDS011;41061;52.822;6.860;2023-01-20T08:14:11;38.38;;;19.65;;
55172;SDS011;41061;52.822;6.860;2023-01-20T08:16:37;38.80;;;20.42;;
55172;SDS011;41061;52.822;6.860;2023-01-20T08:19:02;40.20;;;20.52;;
55172;SDS011;41061;52.822;6.860;2023-01-20T08:21:29;39.75;;;20.58;;
55172;SDS011;41061;52.822;6.860;2023-01-20T08:23:59;37.80;;;19.65;;
55172;SDS011;41061;52.822;6.860;2023-01-20T08:26:27;38.53;;;19.13;;
55172;SDS011;41061;52.822;6.860;2023-01-20T08:28:54;38.67;;;19.10;;
55172;SDS011;41061;52.822;6.860;2023-01-20T08:31:24;36.50;;;19.23;;
55172;SDS011;41061;52.822;6.860;2023-01-20T08:33:54;34.53;;;18.15;;
55172;SDS011;41061;52.822;6.860;2023-01-20T08:36:22;32.63;;;17.30;;
55172;SDS011;41061;52.822;6.860;2023-01-20T08:38:50;34.17;;;17.80;;
55172;SDS011;41061;52.822;6.860;2023-01-20T08:41:21;35.70;;;19.52;;
55172;SDS011;41061;52.822;6.860;2023-01-20T08:43:50;34.90;;;19.33;;
55172;SDS011;41061;52.822;6.860;2023-01-20T08:46:16;35.63;;;18.52;;
55172;SDS011;41061;52.822;6.860;2023-01-20T08:48:43;36.95;;;19.65;;
55172;SDS011;41061;52.822;6.860;2023-01-20T08:51:13;36.55;;;18.95;;
55172;SDS011;41061;52.822;6.860;2023-01-20T08:53:47;31.00;;;17.33;;
55172;SDS011;41061;52.822;6.860;2023-01-20T08:56:13;35.70;;;17.52;;
55172;SDS011;41061;52.822;6.860;2023-01-20T08:58:39;36.38;;;18.45;;
55172;SDS011;41061;52.822;6.860;2023-01-20T09:01:15;32.50;;;17.50;;
55172;SDS011;41061;52.822;6.860;2023-01-20T09:03:46;36.70;;;19.10;;
55172;SDS011;41061;52.822;6.860;2023-01-20T09:06:13;36.53;;;18.63;;
55172;SDS011;41061;52.822;6.860;2023-01-20T09:08:39;35.15;;;18.80;;
55172;SDS011;41061;52.822;6.860;2023-01-20T09:11:10;39.83;;;20.48;;
55172;SDS011;41061;52.822;6.860;2023-01-20T09:13:40;34.90;;;18.20;;
55172;SDS011;41061;52.822;6.860;2023-01-20T09:16:06;33.08;;;19.83;;
55172;SDS011;41061;52.822;6.860;2023-01-20T09:18:33;37.72;;;18.33;;
55172;SDS011;41061;52.822;6.860;2023-01-20T09:20:59;42.53;;;20.40;;
55172;SDS011;41061;52.822;6.860;2023-01-20T09:23:26;41.58;;;20.60;;
55172;SDS011;41061;52.822;6.860;2023-01-20T09:25:52;38.75;;;18.80;;
55172;SDS011;41061;52.822;6.860;2023-01-20T09:28:18;39.15;;;19.65;;
55172;SDS011;41061;52.822;6.860;2023-01-20T09:30:44;38.53;;;20.13;;
55172;SDS011;41061;52.822;6.860;2023-01-20T09:33:10;43.05;;;20.30;;
55172;SDS011;41061;52.822;6.860;2023-01-20T09:35:37;44.22;;;20.80;;
55172;SDS011;41061;52.822;6.860;2023-01-20T09:38:03;43.45;;;20.08;;
55172;SDS011;41061;52.822;6.860;2023-01-20T09:41:00;43.25;;;20.58;;
55172;SDS011;41061;52.822;6.860;2023-01-20T09:44:47;43.33;;;20.08;;
55172;SDS011;41061;52.822;6.860;2023-01-20T09:47:30;43.90;;;20.20;;
55172;SDS011;41061;52.822;6.860;2023-01-20T09:56:17;47.80;;;21.88;;
55172;SDS011;41061;52.822;6.860;2023-01-20T10:01:35;43.05;;;20.13;;
55172;SDS011;41061;52.822;6.860;2023-01-20T10:04:34;44.58;;;21.20;;
55172;SDS011;41061;52.822;6.860;2023-01-20T10:12:21;47.33;;;21.80;;
55172;SDS011;41061;52.822;6.860;2023-01-20T10:15:00;41.50;;;19.02;;
55172;SDS011;41061;52.822;6.860;2023-01-20T10:18:08;41.15;;;20.60;;
55172;SDS011;41061;52.822;6.860;2023-01-20T10:23:54;45.38;;;21.40;;
55172;SDS011;41061;52.822;6.860;2023-01-20T10:26:29;43.10;;;20.77;;
55172;SDS011;41061;52.822;6.860;2023-01-20T10:29:02;46.72;;;20.85;;
55172;SDS011;41061;52.822;6.860;2023-01-20T10:31:34;49.70;;;22.27;;
55172;SDS011;41061;52.822;6.860;2023-01-20T10:34:25;46.17;;;22.02;;
55172;SDS011;41061;52.822;6.860;2023-01-20T10:37:06;47.72;;;22.10;;
55172;SDS011;41061;52.822;6.860;2023-01-20T10:39:39;46.15;;;21.45;;
55172;SDS011;41061;52.822;6.860;2023-01-20T10:42:10;52.17;;;21.83;;
55172;SDS011;41061;52.822;6.860;2023-01-20T10:44:37;39.95;;;16.92;;
55172;SDS011;41061;52.822;6.860;2023-01-20T10:55:49;41.75;;;19.85;;
55172;SDS011;41061;52.822;6.860;2023-01-20T10:58:23;36.40;;;16.60;;
55172;SDS011;41061;52.822;6.860;2023-01-20T11:03:25;40.75;;;19.45;;
55172;SDS011;41061;52.822;6.860;2023-01-20T11:05:52;48.15;;;21.10;;
55172;SDS011;41061;52.822;6.860;2023-01-20T11:08:19;44.88;;;21.00;;
55172;SDS011;41061;52.822;6.860;2023-01-20T11:10:58;48.22;;;21.30;;
55172;SDS011;41061;52.822;6.860;2023-01-20T11:13:29;41.08;;;19.30;;
55172;SDS011;41061;52.822;6.860;2023-01-20T11:15:55;45.47;;;19.13;;
55172;SDS011;41061;52.822;6.860;2023-01-20T11:18:27;40.50;;;19.30;;
55172;SDS011;41061;52.822;6.860;2023-01-20T11:26:24;38.83;;;19.35;;
55172;SDS011;41061;52.822;6.860;2023-01-20T11:34:34;41.72;;;20.42;;
55172;SDS011;41061;52.822;6.860;2023-01-20T11:39:29;38.45;;;19.90;;
55172;SDS011;41061;52.822;6.860;2023-01-20T11:42:17;41.55;;;17.20;;
55172;SDS011;41061;52.822;6.860;2023-01-20T11:44:52;39.92;;;18.88;;
55172;SDS011;41061;52.822;6.860;2023-01-20T11:47:30;38.45;;;18.20;;
55172;SDS011;41061;52.822;6.860;2023-01-20T11:52:33;43.17;;;18.65;;
55172;SDS011;41061;52.822;6.860;2023-01-20T11:55:06;38.53;;;18.27;;
55172;SDS011;41061;52.822;6.860;2023-01-20T11:57:33;40.88;;;17.92;;
55172;SDS011;41061;52.822;6.860;2023-01-20T12:00:02;37.60;;;17.85;;
55172;SDS011;41061;52.822;6.860;2023-01-20T12:02:28;37.63;;;18.17;;
55172;SDS011;41061;52.822;6.860;2023-01-20T12:10:14;38.13;;;18.58;;
55172;SDS011;41061;52.822;6.860;2023-01-20T12:12:51;32.03;;;16.35;;
55172;SDS011;41061;52.822;6.860;2023-01-20T12:15:23;32.35;;;16.63;;
55172;SDS011;41061;52.822;6.860;2023-01-20T12:18:01;35.30;;;17.00;;
55172;SDS011;41061;52.822;6.860;2023-01-20T12:20:53;34.75;;;17.27;;
55172;SDS011;41061;52.822;6.860;2023-01-20T12:26:11;37.90;;;18.02;;
55172;SDS011;41061;52.822;6.860;2023-01-20T12:31:24;38.78;;;18.58;;
55172;SDS011;41061;52.822;6.860;2023-01-20T12:50:24;35.50;;;18.02;;
55172;SDS011;41061;52.822;6.860;2023-01-20T13:09:40;34.80;;;18.17;;
55172;SDS011;41061;52.822;6.860;2023-01-20T13:12:42;39.25;;;18.33;;
55172;SDS011;41061;52.822;6.860;2023-01-20T13:15:27;37.42;;;17.75;;
55172;SDS011;41061;52.822;6.860;2023-01-20T13:21:03;48.55;;;20.35;;
55172;SDS011;41061;52.822;6.860;2023-01-20T13:23:33;39.65;;;20.05;;
55172;SDS011;41061;52.822;6.860;2023-01-20T13:26:00;38.13;;;20.23;;
55172;SDS011;41061;52.822;6.860;2023-01-20T13:28:29;39.38;;;18.75;;
55172;SDS011;41061;52.822;6.860;2023-01-20T13:30:56;41.28;;;20.50;;
55172;SDS011;41061;52.822;6.860;2023-01-20T13:33:34;40.10;;;19.00;;
55172;SDS011;41061;52.822;6.860;2023-01-20T13:36:12;36.78;;;18.90;;
55172;SDS011;41061;52.822;6.860;2023-01-20T13:38:46;39.92;;;20.05;;
55172;SDS011;41061;52.822;6.860;2023-01-20T13:41:51;36.50;;;19.27;;
55172;SDS011;41061;52.822;6.860;2023-01-20T13:44:36;44.90;;;19.95;;
55172;SDS011;41061;52.822;6.860;2023-01-20T13:47:06;45.58;;;20.27;;
55172;SDS011;41061;52.822;6.860;2023-01-20T13:52:08;39.80;;;21.02;;
55172;SDS011;41061;52.822;6.860;2023-01-20T13:54:36;41.60;;;20.38;;
55172;SDS011;41061;52.822;6.860;2023-01-20T13:57:31;40.47;;;20.65;;
55172;SDS011;41061;52.822;6.860;2023-01-20T13:59:58;36.47;;;18.98;;
55172;SDS011;41061;52.822;6.860;2023-01-20T14:02:25;43.22;;;21.08;;
55172;SDS011;41061;52.822;6.860;2023-01-20T14:04:51;38.38;;;18.58;;
55172;SDS011;41061;52.822;6.860;2023-01-20T14:07:23;35.92;;;18.75;;
55172;SDS011;41061;52.822;6.860;2023-01-20T14:09:51;46.75;;;20.17;;
55172;SDS011;41061;52.822;6.860;2023-01-20T14:12:18;41.50;;;20.27;;
55172;SDS011;41061;52.822;6.860;2023-01-20T14:14:45;43.47;;;21.70;;
55172;SDS011;41061;52.822;6.860;2023-01-20T14:17:19;41.00;;;20.35;;
55172;SDS011;41061;52.822;6.860;2023-01-20T14:19:51;42.72;;;21.27;;
55172;SDS011;41061;52.822;6.860;2023-01-20T14:22:28;37.47;;;18.17;;
55172;SDS011;41061;52.822;6.860;2023-01-20T14:24:56;40.22;;;20.45;;
55172;SDS011;41061;52.822;6.860;2023-01-20T14:27:33;40.65;;;21.23;;
55172;SDS011;41061;52.822;6.860;2023-01-20T14:30:14;44.00;;;21.67;;
55172;SDS011;41061;52.822;6.860;2023-01-20T14:32:45;43.53;;;21.20;;
55172;SDS011;41061;52.822;6.860;2023-01-20T14:35:32;42.20;;;21.50;;
55172;SDS011;41061;52.822;6.860;2023-01-20T14:37:58;38.08;;;19.92;;
55172;SDS011;41061;52.822;6.860;2023-01-20T14:40:28;43.30;;;20.70;;
55172;SDS011;41061;52.822;6.860;2023-01-20T14:42:59;40.92;;;20.73;;
55172;SDS011;41061;52.822;6.860;2023-01-20T14:45:26;41.58;;;19.75;;
55172;SDS011;41061;52.822;6.860;2023-01-20T14:47:55;38.97;;;20.33;;
55172;SDS011;41061;52.822;6.860;2023-01-20T14:50:23;38.53;;;21.05;;
55172;SDS011;41061;52.822;6.860;2023-01-20T14:52:49;39.47;;;20.02;;
55172;SDS011;41061;52.822;6.860;2023-01-20T14:57:58;36.83;;;18.92;;
55172;SDS011;41061;52.822;6.860;2023-01-20T15:00:25;37.17;;;19.58;;
55172;SDS011;41061;52.822;6.860;2023-01-20T15:02:54;37.45;;;20.65;;
55172;SDS011;41061;52.822;6.860;2023-01-20T15:05:37;38.83;;;21.35;;
55172;SDS011;41061;52.822;6.860;2023-01-20T15:08:18;41.15;;;20.35;;
55172;SDS011;41061;52.822;6.860;2023-01-20T15:10:46;42.13;;;22.55;;
55172;SDS011;41061;52.822;6.860;2023-01-20T15:16:24;39.45;;;21.88;;
55172;SDS011;41061;52.822;6.860;2023-01-20T15:21:37;44.72;;;21.83;;
55172;SDS011;41061;52.822;6.860;2023-01-20T15:24:06;44.25;;;21.30;;
55172;SDS011;41061;52.822;6.860;2023-01-20T15:31:53;38.35;;;21.70;;
55172;SDS011;41061;52.822;6.860;2023-01-20T15:34:21;44.25;;;22.83;;
55172;SDS011;41061;52.822;6.860;2023-01-20T15:36:49;43.72;;;23.40;;
55172;SDS011;41061;52.822;6.860;2023-01-20T15:39:17;43.88;;;23.25;;
55172;SDS011;41061;52.822;6.860;2023-01-20T15:41:44;42.30;;;24.30;;
55172;SDS011;41061;52.822;6.860;2023-01-20T15:44:12;41.40;;;23.45;;
55172;SDS011;41061;52.822;6.860;2023-01-20T15:46:39;41.60;;;23.65;;
55172;SDS011;41061;52.822;6.860;2023-01-20T15:49:11;47.75;;;26.30;;
55172;SDS011;41061;52.822;6.860;2023-01-20T15:51:39;43.95;;;25.70;;
55172;SDS011;41061;52.822;6.860;2023-01-20T15:54:05;47.63;;;25.92;;
55172;SDS011;41061;52.822;6.860;2023-01-20T15:56:35;47.10;;;26.08;;
55172;SDS011;41061;52.822;6.860;2023-01-20T15:59:13;43.75;;;25.08;;
55172;SDS011;41061;52.822;6.860;2023-01-20T16:01:40;45.58;;;25.10;;
55172;SDS011;41061;52.822;6.860;2023-01-20T16:04:06;43.97;;;25.33;;
55172;SDS011;41061;52.822;6.860;2023-01-20T16:06:32;46.25;;;26.08;;
55172;SDS011;41061;52.822;6.860;2023-01-20T16:09:02;42.63;;;25.70;;
55172;SDS011;41061;52.822;6.860;2023-01-20T16:11:38;44.45;;;25.27;;
55172;SDS011;41061;52.822;6.860;2023-01-20T16:14:06;50.50;;;25.73;;
55172;SDS011;41061;52.822;6.860;2023-01-20T16:16:32;44.35;;;25.35;;
55172;SDS011;41061;52.822;6.860;2023-01-20T16:18:57;49.05;;;26.85;;
55172;SDS011;41061;52.822;6.860;2023-01-20T16:21:23;47.83;;;27.48;;
55172;SDS011;41061;52.822;6.860;2023-01-20T16:23:49;44.53;;;24.52;;
55172;SDS011;41061;52.822;6.860;2023-01-20T16:28:40;47.70;;;26.13;;
55172;SDS011;41061;52.822;6.860;2023-01-20T16:31:06;49.78;;;26.00;;
55172;SDS011;41061;52.822;6.860;2023-01-20T16:33:33;48.78;;;26.02;;
55172;SDS011;41061;52.822;6.860;2023-01-20T16:35:59;44.53;;;25.15;;
55172;SDS011;41061;52.822;6.860;2023-01-20T16:38:25;45.95;;;25.25;;
55172;SDS011;41061;52.822;6.860;2023-01-20T16:43:22;48.65;;;24.40;;
55172;SDS011;41061;52.822;6.860;2023-01-20T16:45:49;46.60;;;23.75;;
55172;SDS011;41061;52.822;6.860;2023-01-20T16:48:20;45.00;;;24.20;;
55172;SDS011;41061;52.822;6.860;2023-01-20T16:50:47;46.67;;;23.88;;
55172;SDS011;41061;52.822;6.860;2023-01-20T16:53:14;39.05;;;22.42;;
55172;SDS011;41061;52.822;6.860;2023-01-20T16:55:44;44.60;;;23.75;;
55172;SDS011;41061;52.822;6.860;2023-01-20T16:58:14;42.25;;;22.83;;
55172;SDS011;41061;52.822;6.860;2023-01-20T17:00:40;44.60;;;22.80;;
55172;SDS011;41061;52.822;6.860;2023-01-20T17:03:06;40.17;;;22.58;;